sensor_id;sensor_type;location;lat;lon;timestamp;noise_LAeq;noise_LA_min;noise_LA_max;noise_LA01;noise_LA95
64079;Laerm;51042;49.696;10.808;2023-04-22T00:01:27;43.62;41.04;47.52;;
64079;Laerm;51042;49.696;10.808;2023-04-22T00:03:53;43.82;40.84;48.72;;
64079;Laerm;51042;49.696;10.808;2023-04-22T00:06:18;43.74;40.97;46.86;;
64079;Laerm;51042;49.696;10.808;2023-04-22T00:08:44;43.88;40.84;50.77;;
64079;Laerm;51042;49.696;10.808;2023-04-22T00:11:09;49.53;41.24;65.97;;
64079;Laerm;51042;49.696;10.808;2023-04-22T00:13:35;43.82;41.23;48.99;;
64079;Laerm;51042;49.696;10.808;2023-04-22T00:16:04;43.52;40.97;47.00;;
64079;Laerm;51042;49.696;10.808;2023-04-22T00:18:30;48.88;40.39;64.57;;
64079;Laerm;51042;49.696;10.808;2023-04-22T00:20:55;43.82;41.02;51.69;;
64079;Laerm;51042;49.696;10.808;2023-04-22T00:23:20;43.71;40.59;52.48;;
64079;Laerm;51042;49.696;10.808;2023-04-22T00:25:46;43.99;41.08;46.93;;
64079;Laerm;51042;49.696;10.808;2023-04-22T00:28:11;52.97;41.59;69.02;;
64079;Laerm;51042;49.696;10.808;2023-04-22T00:30:37;45.13;41.32;57.87;;
64079;Laerm;51042;49.696;10.808;2023-04-22T00:33:02;51.83;41.55;70.62;;
64079;Laerm;51042;49.696;10.808;2023-04-22T00:35:27;43.95;40.56;48.80;;
64079;Laerm;51042;49.696;10.808;2023-04-22T00:37:53;50.47;41.60;66.84;;
64079;Laerm;51042;49.696;10.808;2023-04-22T00:40:18;43.75;41.11;46.52;;
64079;Laerm;51042;49.696;10.808;2023-04-22T00:42:45;43.56;41.28;46.50;;
64079;Laerm;51042;49.696;10.808;2023-04-22T00:45:11;43.63;41.15;46.76;;
64079;Laerm;51042;49.696;10.808;2023-04-22T00:47:40;60.54;41.04;78.58;;
64079;Laerm;51042;49.696;10.808;2023-04-22T00:50:06;43.84;40.75;49.62;;
64079;Laerm;51042;49.696;10.808;2023-04-22T00:52:32;43.61;40.76;51.32;;
64079;Laerm;51042;49.696;10.808;2023-04-22T00:54:57;43.56;40.67;48.43;;
64079;Laerm;51042;49.696;10.808;2023-04-22T00:57:23;43.47;40.91;46.47;;
64079;Laerm;51042;49.696;10.808;2023-04-22T00:59:48;43.87;40.28;56.48;;
64079;Laerm;51042;49.696;10.808;2023-04-22T01:02:14;43.68;40.92;53.34;;
64079;Laerm;51042;49.696;10.808;2023-04-22T01:04:40;43.76;40.98;51.33;;
64079;Laerm;51042;49.696;10.808;2023-04-22T01:07:05;43.67;40.90;51.28;;
64079;Laerm;51042;49.696;10.808;2023-04-22T01:09:31;47.19;40.64;61.63;;
64079;Laerm;51042;49.696;10.808;2023-04-22T01:11:56;43.86;40.53;48.25;;
64079;Laerm;51042;49.696;10.808;2023-04-22T01:14:22;55.74;40.86;73.39;;
64079;Laerm;51042;49.696;10.808;2023-04-22T01:16:49;43.72;40.87;47.72;;
64079;Laerm;51042;49.696;10.808;2023-04-22T01:19:15;43.64;40.77;53.35;;
64079;Laerm;51042;49.696;10.808;2023-04-22T01:21:42;43.51;40.73;49.18;;
64079;Laerm;51042;49.696;10.808;2023-04-22T01:24:09;43.53;40.67;50.41;;
64079;Laerm;51042;49.696;10.808;2023-04-22T01:26:35;43.73;41.06;49.79;;
64079;Laerm;51042;49.696;10.808;2023-04-22T01:29:02;43.81;40.56;52.99;;
64079;Laerm;51042;49.696;10.808;2023-04-22T01:31:30;50.34;41.01;66.83;;
64079;Laerm;51042;49.696;10.808;2023-04-22T01:33:55;44.97;40.79;60.77;;
64079;Laerm;51042;49.696;10.808;2023-04-22T01:36:21;68.15;40.37;86.58;;
64079;Laerm;51042;49.696;10.808;2023-04-22T01:38:46;43.93;40.61;54.88;;
64079;Laerm;51042;49.696;10.808;2023-04-22T01:41:12;44.33;41.10;57.20;;
64079;Laerm;51042;49.696;10.808;2023-04-22T01:43:38;49.75;41.19;65.96;;
64079;Laerm;51042;49.696;10.808;2023-04-22T01:46:05;43.76;40.41;54.80;;
64079;Laerm;51042;49.696;10.808;2023-04-22T01:48:30;43.75;40.75;48.43;;
64079;Laerm;51042;49.696;10.808;2023-04-22T01:50:55;44.34;40.97;52.61;;
64079;Laerm;51042;49.696;10.808;2023-04-22T01:53:21;43.46;40.90;46.76;;
64079;Laerm;51042;49.696;10.808;2023-04-22T01:55:46;43.68;40.31;48.42;;
64079;Laerm;51042;49.696;10.808;2023-04-22T01:58:11;43.65;41.14;48.63;;
64079;Laerm;51042;49.696;10.808;2023-04-22T02:00:37;43.84;41.38;53.31;;
64079;Laerm;51042;49.696;10.808;2023-04-22T02:03:02;45.46;41.29;70.06;;
64079;Laerm;51042;49.696;10.808;2023-04-22T02:05:27;45.64;40.88;62.84;;
64079;Laerm;51042;49.696;10.808;2023-04-22T02:07:53;43.70;41.15;46.91;;
64079;Laerm;51042;49.696;10.808;2023-04-22T02:10:19;43.74;40.84;46.43;;
64079;Laerm;51042;49.696;10.808;2023-04-22T02:12:45;44.24;41.19;50.73;;
64079;Laerm;51042;49.696;10.808;2023-04-22T02:15:10;61.36;40.64;79.19;;
64079;Laerm;51042;49.696;10.808;2023-04-22T02:17:36;58.49;41.97;74.08;;
64079;Laerm;51042;49.696;10.808;2023-04-22T02:20:03;44.16;41.29;48.97;;
64079;Laerm;51042;49.696;10.808;2023-04-22T02:22:29;46.58;41.59;64.24;;
64079;Laerm;51042;49.696;10.808;2023-04-22T02:24:55;47.62;41.09;63.55;;
64079;Laerm;51042;49.696;10.808;2023-04-22T02:27:20;46.43;41.09;65.49;;
64079;Laerm;51042;49.696;10.808;2023-04-22T02:29:46;47.00;40.51;64.72;;
64079;Laerm;51042;49.696;10.808;2023-04-22T02:32:12;58.46;40.05;75.99;;
64079;Laerm;51042;49.696;10.808;2023-04-22T02:34:37;44.30;39.94;63.28;;
64079;Laerm;51042;49.696;10.808;2023-04-22T02:37:03;52.40;39.52;68.05;;
64079;Laerm;51042;49.696;10.808;2023-04-22T02:39:28;45.76;39.91;64.49;;
64079;Laerm;51042;49.696;10.808;2023-04-22T02:41:53;57.66;40.39;76.21;;
64079;Laerm;51042;49.696;10.808;2023-04-22T02:44:19;46.48;39.70;61.31;;
64079;Laerm;51042;49.696;10.808;2023-04-22T02:46:44;59.98;41.82;83.32;;
64079;Laerm;51042;49.696;10.808;2023-04-22T02:49:09;62.66;41.32;84.62;;
64079;Laerm;51042;49.696;10.808;2023-04-22T02:51:37;43.73;40.74;50.78;;
64079;Laerm;51042;49.696;10.808;2023-04-22T02:54:03;43.64;40.68;51.72;;
64079;Laerm;51042;49.696;10.808;2023-04-22T02:56:28;42.95;39.51;49.65;;
64079;Laerm;51042;49.696;10.808;2023-04-22T02:58:53;42.46;39.76;48.99;;
64079;Laerm;51042;49.696;10.808;2023-04-22T03:01:19;51.91;39.75;68.23;;
64079;Laerm;51042;49.696;10.808;2023-04-22T03:03:44;49.59;39.88;65.45;;
64079;Laerm;51042;49.696;10.808;2023-04-22T03:06:09;60.23;39.82;78.34;;
64079;Laerm;51042;49.696;10.808;2023-04-22T03:08:35;42.40;39.42;47.11;;
64079;Laerm;51042;49.696;10.808;2023-04-22T03:11:00;58.92;40.03;77.64;;
64079;Laerm;51042;49.696;10.808;2023-04-22T03:13:26;51.31;40.12;70.08;;
64079;Laerm;51042;49.696;10.808;2023-04-22T03:15:51;50.83;40.19;67.39;;
64079;Laerm;51042;49.696;10.808;2023-04-22T03:18:16;43.32;40.31;48.80;;
64079;Laerm;51042;49.696;10.808;2023-04-22T03:20:41;43.90;40.61;54.34;;
64079;Laerm;51042;49.696;10.808;2023-04-22T03:23:07;44.82;40.70;53.50;;
64079;Laerm;51042;49.696;10.808;2023-04-22T03:25:33;49.88;41.13;65.40;;
64079;Laerm;51042;49.696;10.808;2023-04-22T03:27:59;50.97;41.17;65.45;;
64079;Laerm;51042;49.696;10.808;2023-04-22T03:30:24;50.23;41.03;66.44;;
64079;Laerm;51042;49.696;10.808;2023-04-22T03:32:49;54.59;40.48;69.53;;
64079;Laerm;51042;49.696;10.808;2023-04-22T03:35:16;56.05;41.06;70.41;;
64079;Laerm;51042;49.696;10.808;2023-04-22T03:37:41;47.27;41.05;62.40;;
64079;Laerm;51042;49.696;10.808;2023-04-22T03:40:07;47.38;41.03;61.61;;
64079;Laerm;51042;49.696;10.808;2023-04-22T03:42:33;54.35;40.45;69.35;;
64079;Laerm;51042;49.696;10.808;2023-04-22T03:44:59;51.95;41.26;68.80;;
64079;Laerm;51042;49.696;10.808;2023-04-22T03:47:24;53.38;41.69;67.96;;
64079;Laerm;51042;49.696;10.808;2023-04-22T03:49:49;56.97;41.77;73.02;;
64079;Laerm;51042;49.696;10.808;2023-04-22T03:52:15;52.63;41.40;71.52;;
64079;Laerm;51042;49.696;10.808;2023-04-22T03:54:40;49.97;41.22;64.70;;
64079;Laerm;51042;49.696;10.808;2023-04-22T03:57:05;53.87;41.27;72.53;;
64079;Laerm;51042;49.696;10.808;2023-04-22T03:59:31;55.89;41.29;71.97;;
64079;Laerm;51042;49.696;10.808;2023-04-22T04:01:56;59.05;41.94;74.82;;
64079;Laerm;51042;49.696;10.808;2023-04-22T04:04:21;63.63;44.35;74.92;;
64079;Laerm;51042;49.696;10.808;2023-04-22T04:06:47;62.15;44.87;76.24;;
64079;Laerm;51042;49.696;10.808;2023-04-22T04:09:13;59.41;43.42;72.81;;
64079;Laerm;51042;49.696;10.808;2023-04-22T04:11:38;57.94;41.60;75.28;;
64079;Laerm;51042;49.696;10.808;2023-04-22T04:14:03;63.07;41.49;79.47;;
64079;Laerm;51042;49.696;10.808;2023-04-22T04:16:29;47.14;41.22;67.75;;
64079;Laerm;51042;49.696;10.808;2023-04-22T04:18:54;56.49;40.72;70.26;;
64079;Laerm;51042;49.696;10.808;2023-04-22T04:21:19;55.27;41.17;71.54;;
64079;Laerm;51042;49.696;10.808;2023-04-22T04:23:45;55.44;40.79;68.79;;
64079;Laerm;51042;49.696;10.808;2023-04-22T04:26:11;59.35;41.25;72.73;;
64079;Laerm;51042;49.696;10.808;2023-04-22T04:28:36;57.88;41.00;72.52;;
64079;Laerm;51042;49.696;10.808;2023-04-22T04:31:02;44.50;41.06;62.77;;
64079;Laerm;51042;49.696;10.808;2023-04-22T04:33:30;53.33;40.73;72.05;;
64079;Laerm;51042;49.696;10.808;2023-04-22T04:35:59;57.86;41.51;73.26;;
64079;Laerm;51042;49.696;10.808;2023-04-22T04:38:25;52.57;41.33;67.59;;
64079;Laerm;51042;49.696;10.808;2023-04-22T04:40:51;52.17;41.91;69.05;;
64079;Laerm;51042;49.696;10.808;2023-04-22T04:43:16;54.68;41.41;70.49;;
64079;Laerm;51042;49.696;10.808;2023-04-22T04:45:42;54.97;41.44;72.65;;
64079;Laerm;51042;49.696;10.808;2023-04-22T04:48:14;53.08;40.82;69.68;;
64079;Laerm;51042;49.696;10.808;2023-04-22T04:50:41;55.42;41.17;69.37;;
64079;Laerm;51042;49.696;10.808;2023-04-22T04:53:07;58.18;41.44;75.16;;
64079;Laerm;51042;49.696;10.808;2023-04-22T04:55:32;57.19;42.10;71.04;;
64079;Laerm;51042;49.696;10.808;2023-04-22T04:57:58;51.41;42.32;65.62;;
64079;Laerm;51042;49.696;10.808;2023-04-22T05:00:29;60.41;42.18;74.72;;
64079;Laerm;51042;49.696;10.808;2023-04-22T05:02:54;58.04;42.19;70.72;;
64079;Laerm;51042;49.696;10.808;2023-04-22T05:05:20;55.33;41.41;71.79;;
64079;Laerm;51042;49.696;10.808;2023-04-22T05:07:45;63.32;40.74;82.24;;
64079;Laerm;51042;49.696;10.808;2023-04-22T05:10:11;53.99;41.17;69.19;;
64079;Laerm;51042;49.696;10.808;2023-04-22T05:12:36;52.34;42.25;66.00;;
64079;Laerm;51042;49.696;10.808;2023-04-22T05:15:02;57.73;41.57;75.52;;
64079;Laerm;51042;49.696;10.808;2023-04-22T05:17:28;56.88;40.63;70.96;;
64079;Laerm;51042;49.696;10.808;2023-04-22T05:19:53;58.05;41.53;71.30;;
64079;Laerm;51042;49.696;10.808;2023-04-22T05:22:19;55.72;41.66;71.10;;
64079;Laerm;51042;49.696;10.808;2023-04-22T05:24:44;55.66;40.90;69.28;;
64079;Laerm;51042;49.696;10.808;2023-04-22T05:27:09;57.58;41.25;74.37;;
64079;Laerm;51042;49.696;10.808;2023-04-22T05:29:35;61.46;41.54;80.61;;
64079;Laerm;51042;49.696;10.808;2023-04-22T05:32:00;54.98;40.95;70.08;;
64079;Laerm;51042;49.696;10.808;2023-04-22T05:34:26;55.65;41.09;68.00;;
64079;Laerm;51042;49.696;10.808;2023-04-22T05:36:52;58.52;41.00;72.02;;
64079;Laerm;51042;49.696;10.808;2023-04-22T05:39:18;60.21;41.37;72.01;;
64079;Laerm;51042;49.696;10.808;2023-04-22T05:41:43;59.94;40.76;86.87;;
64079;Laerm;51042;49.696;10.808;2023-04-22T05:44:09;61.41;41.44;81.30;;
64079;Laerm;51042;49.696;10.808;2023-04-22T05:46:35;58.80;40.16;70.62;;
64079;Laerm;51042;49.696;10.808;2023-04-22T05:49:01;67.96;41.95;85.70;;
64079;Laerm;51042;49.696;10.808;2023-04-22T05:51:26;59.07;40.45;73.34;;
64079;Laerm;51042;49.696;10.808;2023-04-22T05:53:51;57.91;40.91;71.06;;
64079;Laerm;51042;49.696;10.808;2023-04-22T05:56:17;57.73;41.04;75.07;;
64079;Laerm;51042;49.696;10.808;2023-04-22T05:58:42;57.94;40.52;70.16;;
64079;Laerm;51042;49.696;10.808;2023-04-22T06:01:08;54.00;40.32;71.21;;
64079;Laerm;51042;49.696;10.808;2023-04-22T06:03:33;59.38;40.55;78.12;;
64079;Laerm;51042;49.696;10.808;2023-04-22T06:05:59;54.90;41.14;69.64;;
64079;Laerm;51042;49.696;10.808;2023-04-22T06:08:24;60.23;41.02;74.64;;
64079;Laerm;51042;49.696;10.808;2023-04-22T06:10:50;59.65;41.24;78.34;;
64079;Laerm;51042;49.696;10.808;2023-04-22T06:13:15;61.07;40.56;79.79;;
64079;Laerm;51042;49.696;10.808;2023-04-22T06:15:41;56.33;41.06;68.27;;
64079;Laerm;51042;49.696;10.808;2023-04-22T06:18:06;60.67;43.01;73.41;;
64079;Laerm;51042;49.696;10.808;2023-04-22T06:20:31;60.55;45.85;76.12;;
64079;Laerm;51042;49.696;10.808;2023-04-22T06:22:57;59.35;41.68;71.29;;
64079;Laerm;51042;49.696;10.808;2023-04-22T06:25:23;61.46;42.36;74.25;;
64079;Laerm;51042;49.696;10.808;2023-04-22T06:27:48;62.03;41.61;74.75;;
64079;Laerm;51042;49.696;10.808;2023-04-22T06:30:14;60.77;41.71;75.60;;
64079;Laerm;51042;49.696;10.808;2023-04-22T06:32:39;63.41;42.75;74.25;;
64079;Laerm;51042;49.696;10.808;2023-04-22T06:35:05;58.39;41.03;76.45;;
64079;Laerm;51042;49.696;10.808;2023-04-22T06:37:30;65.38;43.03;89.12;;
64079;Laerm;51042;49.696;10.808;2023-04-22T06:39:56;63.12;41.57;80.50;;
64079;Laerm;51042;49.696;10.808;2023-04-22T06:42:21;62.11;42.20;76.29;;
64079;Laerm;51042;49.696;10.808;2023-04-22T06:44:47;64.68;44.80;80.04;;
64079;Laerm;51042;49.696;10.808;2023-04-22T06:47:12;66.44;47.40;87.29;;
64079;Laerm;51042;49.696;10.808;2023-04-22T06:49:37;62.84;42.91;75.62;;
64079;Laerm;51042;49.696;10.808;2023-04-22T06:52:04;64.95;41.95;84.15;;
64079;Laerm;51042;49.696;10.808;2023-04-22T06:54:30;60.01;41.61;73.20;;
64079;Laerm;51042;49.696;10.808;2023-04-22T06:56:56;61.48;45.34;75.30;;
64079;Laerm;51042;49.696;10.808;2023-04-22T06:59:21;63.37;41.61;79.43;;
64079;Laerm;51042;49.696;10.808;2023-04-22T07:01:46;62.35;44.86;73.05;;
64079;Laerm;51042;49.696;10.808;2023-04-22T07:04:12;65.65;43.91;82.55;;
64079;Laerm;51042;49.696;10.808;2023-04-22T07:06:37;62.42;44.81;80.80;;
64079;Laerm;51042;49.696;10.808;2023-04-22T07:09:02;63.83;46.18;81.55;;
64079;Laerm;51042;49.696;10.808;2023-04-22T07:11:28;64.34;44.46;90.91;;
64079;Laerm;51042;49.696;10.808;2023-04-22T07:13:55;61.75;43.23;73.15;;
64079;Laerm;51042;49.696;10.808;2023-04-22T07:16:20;65.20;43.43;82.08;;
64079;Laerm;51042;49.696;10.808;2023-04-22T07:18:48;70.81;43.62;94.88;;
64079;Laerm;51042;49.696;10.808;2023-04-22T07:21:15;62.00;45.94;73.38;;
64079;Laerm;51042;49.696;10.808;2023-04-22T07:23:40;63.29;41.31;83.58;;
64079;Laerm;51042;49.696;10.808;2023-04-22T07:26:06;62.24;41.18;81.63;;
64079;Laerm;51042;49.696;10.808;2023-04-22T07:28:31;61.07;43.76;70.05;;
64079;Laerm;51042;49.696;10.808;2023-04-22T07:30:56;62.34;45.37;75.19;;
64079;Laerm;51042;49.696;10.808;2023-04-22T07:33:22;58.98;42.07;73.44;;
64079;Laerm;51042;49.696;10.808;2023-04-22T07:35:47;64.64;44.91;85.01;;
64079;Laerm;51042;49.696;10.808;2023-04-22T07:38:12;61.80;43.04;70.57;;
64079;Laerm;51042;49.696;10.808;2023-04-22T07:40:38;61.30;43.48;73.34;;
64079;Laerm;51042;49.696;10.808;2023-04-22T07:43:03;63.97;44.83;76.48;;
64079;Laerm;51042;49.696;10.808;2023-04-22T07:45:30;67.41;45.83;83.53;;
64079;Laerm;51042;49.696;10.808;2023-04-22T07:47:55;63.41;45.13;74.59;;
64079;Laerm;51042;49.696;10.808;2023-04-22T07:50:21;64.10;44.77;81.15;;
64079;Laerm;51042;49.696;10.808;2023-04-22T07:52:47;63.98;45.44;81.84;;
64079;Laerm;51042;49.696;10.808;2023-04-22T07:55:12;62.80;44.10;78.22;;
64079;Laerm;51042;49.696;10.808;2023-04-22T07:57:37;62.79;42.42;73.99;;
64079;Laerm;51042;49.696;10.808;2023-04-22T08:00:09;63.61;42.06;75.05;;
64079;Laerm;51042;49.696;10.808;2023-04-22T08:02:35;61.80;42.18;73.29;;
64079;Laerm;51042;49.696;10.808;2023-04-22T08:05:00;63.45;40.92;79.93;;
64079;Laerm;51042;49.696;10.808;2023-04-22T08:07:26;62.57;42.38;77.82;;
64079;Laerm;51042;49.696;10.808;2023-04-22T08:09:52;63.02;44.08;76.02;;
64079;Laerm;51042;49.696;10.808;2023-04-22T08:12:17;60.69;47.03;70.93;;
64079;Laerm;51042;49.696;10.808;2023-04-22T08:14:43;59.66;41.53;77.92;;
64079;Laerm;51042;49.696;10.808;2023-04-22T08:17:08;69.19;42.37;92.13;;
64079;Laerm;51042;49.696;10.808;2023-04-22T08:19:33;63.86;42.42;81.73;;
64079;Laerm;51042;49.696;10.808;2023-04-22T08:21:59;62.45;40.47;86.80;;
64079;Laerm;51042;49.696;10.808;2023-04-22T08:24:24;63.78;40.82;77.56;;
64079;Laerm;51042;49.696;10.808;2023-04-22T08:26:50;60.07;44.35;70.12;;
64079;Laerm;51042;49.696;10.808;2023-04-22T08:29:15;63.34;44.44;77.01;;
64079;Laerm;51042;49.696;10.808;2023-04-22T08:31:41;61.63;43.19;72.68;;
64079;Laerm;51042;49.696;10.808;2023-04-22T08:34:06;61.65;47.37;76.49;;
64079;Laerm;51042;49.696;10.808;2023-04-22T08:36:32;64.71;45.05;83.17;;
64079;Laerm;51042;49.696;10.808;2023-04-22T08:38:57;63.29;44.15;75.34;;
64079;Laerm;51042;49.696;10.808;2023-04-22T08:41:22;63.01;44.57;82.30;;
64079;Laerm;51042;49.696;10.808;2023-04-22T08:43:52;62.84;42.13;77.37;;
64079;Laerm;51042;49.696;10.808;2023-04-22T08:46:17;67.60;46.34;81.59;;
64079;Laerm;51042;49.696;10.808;2023-04-22T08:48:49;61.29;44.39;73.25;;
64079;Laerm;51042;49.696;10.808;2023-04-22T08:51:15;63.67;44.03;80.61;;
64079;Laerm;51042;49.696;10.808;2023-04-22T08:53:42;63.96;43.03;82.12;;
64079;Laerm;51042;49.696;10.808;2023-04-22T08:56:08;63.63;42.30;77.57;;
64079;Laerm;51042;49.696;10.808;2023-04-22T08:58:35;62.33;43.31;77.41;;
64079;Laerm;51042;49.696;10.808;2023-04-22T09:01:01;68.02;48.66;85.52;;
64079;Laerm;51042;49.696;10.808;2023-04-22T09:03:27;63.32;42.60;80.15;;
64079;Laerm;51042;49.696;10.808;2023-04-22T09:05:53;64.53;44.05;83.08;;
64079;Laerm;51042;49.696;10.808;2023-04-22T09:08:19;62.59;43.69;74.56;;
64079;Laerm;51042;49.696;10.808;2023-04-22T09:10:45;62.65;40.90;76.81;;
64079;Laerm;51042;49.696;10.808;2023-04-22T09:13:12;66.78;46.11;85.00;;
64079;Laerm;51042;49.696;10.808;2023-04-22T09:15:38;63.59;43.61;77.54;;
64079;Laerm;51042;49.696;10.808;2023-04-22T09:18:03;64.17;47.42;79.66;;
64079;Laerm;51042;49.696;10.808;2023-04-22T09:20:29;62.01;43.93;75.44;;
64079;Laerm;51042;49.696;10.808;2023-04-22T09:22:56;64.79;48.70;81.67;;
64079;Laerm;51042;49.696;10.808;2023-04-22T09:25:26;64.52;45.32;83.45;;
64079;Laerm;51042;49.696;10.808;2023-04-22T09:27:56;62.69;44.31;72.75;;
64079;Laerm;51042;49.696;10.808;2023-04-22T09:30:31;67.46;43.88;85.51;;
64079;Laerm;51042;49.696;10.808;2023-04-22T09:32:59;63.46;44.38;74.11;;
64079;Laerm;51042;49.696;10.808;2023-04-22T09:35:32;64.92;46.66;76.85;;
64079;Laerm;51042;49.696;10.808;2023-04-22T09:38:00;63.33;49.23;74.18;;
64079;Laerm;51042;49.696;10.808;2023-04-22T09:40:26;66.00;49.77;84.69;;
64079;Laerm;51042;49.696;10.808;2023-04-22T09:42:56;64.48;44.16;84.94;;
64079;Laerm;51042;49.696;10.808;2023-04-22T09:48:07;62.32;43.11;73.35;;
64079;Laerm;51042;49.696;10.808;2023-04-22T09:50:33;64.06;45.41;82.19;;
64079;Laerm;51042;49.696;10.808;2023-04-22T09:53:01;66.80;46.93;86.01;;
64079;Laerm;51042;49.696;10.808;2023-04-22T09:55:29;61.00;44.69;73.38;;
64079;Laerm;51042;49.696;10.808;2023-04-22T09:57:56;58.99;41.86;75.66;;
64079;Laerm;51042;49.696;10.808;2023-04-22T10:00:29;60.97;40.62;76.76;;
64079;Laerm;51042;49.696;10.808;2023-04-22T10:02:55;62.35;43.71;82.10;;
64079;Laerm;51042;49.696;10.808;2023-04-22T10:05:20;59.28;44.70;74.94;;
64079;Laerm;51042;49.696;10.808;2023-04-22T10:07:46;64.22;46.90;81.40;;
64079;Laerm;51042;49.696;10.808;2023-04-22T10:10:12;65.17;43.64;82.27;;
64079;Laerm;51042;49.696;10.808;2023-04-22T10:12:37;63.56;47.31;80.77;;
64079;Laerm;51042;49.696;10.808;2023-04-22T10:15:03;67.20;45.35;85.03;;
64079;Laerm;51042;49.696;10.808;2023-04-22T10:17:32;67.18;41.62;81.00;;
64079;Laerm;51042;49.696;10.808;2023-04-22T10:19:59;59.88;43.64;75.01;;
64079;Laerm;51042;49.696;10.808;2023-04-22T10:22:30;60.95;42.39;71.44;;
64079;Laerm;51042;49.696;10.808;2023-04-22T10:24:56;61.35;43.21;75.03;;
64079;Laerm;51042;49.696;10.808;2023-04-22T10:27:22;66.08;45.44;82.94;;
64079;Laerm;51042;49.696;10.808;2023-04-22T10:29:48;60.33;42.98;74.51;;
64079;Laerm;51042;49.696;10.808;2023-04-22T10:34:45;60.52;43.88;70.94;;
64079;Laerm;51042;49.696;10.808;2023-04-22T10:37:11;62.57;45.37;78.31;;
64079;Laerm;51042;49.696;10.808;2023-04-22T10:39:38;66.49;44.91;83.93;;
64079;Laerm;51042;49.696;10.808;2023-04-22T10:42:13;64.05;46.39;81.53;;
64079;Laerm;51042;49.696;10.808;2023-04-22T10:44:49;63.60;46.33;79.97;;
64079;Laerm;51042;49.696;10.808;2023-04-22T10:47:30;64.27;44.00;78.25;;
64079;Laerm;51042;49.696;10.808;2023-04-22T10:52:33;65.06;44.62;82.94;;
64079;Laerm;51042;49.696;10.808;2023-04-22T10:54:58;64.38;42.99;81.00;;
64079;Laerm;51042;49.696;10.808;2023-04-22T10:57:29;60.66;41.58;72.87;;
64079;Laerm;51042;49.696;10.808;2023-04-22T11:00:00;63.83;42.59;80.75;;
64079;Laerm;51042;49.696;10.808;2023-04-22T11:02:40;63.46;43.15;81.14;;
64079;Laerm;51042;49.696;10.808;2023-04-22T11:05:23;64.69;42.14;76.85;;
64079;Laerm;51042;49.696;10.808;2023-04-22T11:07:53;62.75;42.64;74.35;;
64079;Laerm;51042;49.696;10.808;2023-04-22T11:10:40;69.93;44.84;92.09;;
64079;Laerm;51042;49.696;10.808;2023-04-22T11:13:12;69.56;44.34;87.81;;
64079;Laerm;51042;49.696;10.808;2023-04-22T11:15:39;61.54;41.63;79.88;;
64079;Laerm;51042;49.696;10.808;2023-04-22T11:18:10;65.65;41.32;83.94;;
64079;Laerm;51042;49.696;10.808;2023-04-22T11:20:37;67.00;45.59;82.70;;
64079;Laerm;51042;49.696;10.808;2023-04-22T11:23:02;64.43;42.53;81.70;;
64079;Laerm;51042;49.696;10.808;2023-04-22T11:25:29;57.99;40.97;76.90;;
64079;Laerm;51042;49.696;10.808;2023-04-22T11:27:55;60.92;42.18;77.81;;
64079;Laerm;51042;49.696;10.808;2023-04-22T11:30:23;65.43;42.78;83.90;;
64079;Laerm;51042;49.696;10.808;2023-04-22T11:32:51;62.69;43.25;74.61;;
64079;Laerm;51042;49.696;10.808;2023-04-22T11:35:22;65.15;45.74;82.36;;
64079;Laerm;51042;49.696;10.808;2023-04-22T11:37:59;62.43;46.43;79.74;;
64079;Laerm;51042;49.696;10.808;2023-04-22T11:40:33;60.03;42.76;71.35;;
64079;Laerm;51042;49.696;10.808;2023-04-22T11:43:01;63.36;45.23;79.14;;
64079;Laerm;51042;49.696;10.808;2023-04-22T11:45:28;59.48;42.33;76.94;;
64079;Laerm;51042;49.696;10.808;2023-04-22T11:47:54;61.66;44.78;77.56;;
64079;Laerm;51042;49.696;10.808;2023-04-22T11:50:22;62.47;43.23;80.87;;
64079;Laerm;51042;49.696;10.808;2023-04-22T11:53:03;58.93;43.47;72.90;;
64079;Laerm;51042;49.696;10.808;2023-04-22T11:55:31;61.33;43.59;80.21;;
64079;Laerm;51042;49.696;10.808;2023-04-22T11:58:08;61.09;43.85;80.02;;
64079;Laerm;51042;49.696;10.808;2023-04-22T12:00:41;86.26;47.45;108.93;;
64079;Laerm;51042;49.696;10.808;2023-04-22T12:03:24;61.26;42.16;70.27;;
64079;Laerm;51042;49.696;10.808;2023-04-22T12:08:31;59.29;44.19;70.61;;
64079;Laerm;51042;49.696;10.808;2023-04-22T12:11:00;60.06;43.86;75.66;;
64079;Laerm;51042;49.696;10.808;2023-04-22T12:13:32;58.97;43.17;73.40;;
64079;Laerm;51042;49.696;10.808;2023-04-22T12:16:00;63.92;43.71;79.20;;
64079;Laerm;51042;49.696;10.808;2023-04-22T12:18:36;60.61;43.32;77.71;;
64079;Laerm;51042;49.696;10.808;2023-04-22T12:23:46;68.43;43.92;85.80;;
64079;Laerm;51042;49.696;10.808;2023-04-22T12:26:12;61.65;44.62;78.53;;
64079;Laerm;51042;49.696;10.808;2023-04-22T12:28:40;72.38;43.06;92.96;;
64079;Laerm;51042;49.696;10.808;2023-04-22T12:31:06;62.91;43.57;78.56;;
64079;Laerm;51042;49.696;10.808;2023-04-22T12:33:32;60.89;41.50;74.13;;
64079;Laerm;51042;49.696;10.808;2023-04-22T12:35:58;62.55;43.07;75.82;;
64079;Laerm;51042;49.696;10.808;2023-04-22T12:38:23;59.73;42.64;72.47;;
64079;Laerm;51042;49.696;10.808;2023-04-22T12:40:49;61.81;46.62;80.07;;
64079;Laerm;51042;49.696;10.808;2023-04-22T12:43:15;67.53;45.12;85.27;;
64079;Laerm;51042;49.696;10.808;2023-04-22T12:45:41;59.06;41.94;71.13;;
64079;Laerm;51042;49.696;10.808;2023-04-22T12:48:06;60.28;41.88;77.20;;
64079;Laerm;51042;49.696;10.808;2023-04-22T12:50:32;60.69;44.50;71.77;;
64079;Laerm;51042;49.696;10.808;2023-04-22T12:52:57;59.58;42.38;79.46;;
64079;Laerm;51042;49.696;10.808;2023-04-22T12:55:23;61.03;44.31;78.02;;
64079;Laerm;51042;49.696;10.808;2023-04-22T12:57:48;60.25;43.25;78.18;;
64079;Laerm;51042;49.696;10.808;2023-04-22T13:00:15;60.20;46.40;74.73;;
64079;Laerm;51042;49.696;10.808;2023-04-22T13:02:42;57.76;41.56;70.02;;
64079;Laerm;51042;49.696;10.808;2023-04-22T13:05:11;59.80;43.07;72.34;;
64079;Laerm;51042;49.696;10.808;2023-04-22T13:07:38;65.14;48.94;76.03;;
64079;Laerm;51042;49.696;10.808;2023-04-22T13:10:05;60.57;45.67;71.42;;
64079;Laerm;51042;49.696;10.808;2023-04-22T13:12:31;63.83;47.27;84.99;;
64079;Laerm;51042;49.696;10.808;2023-04-22T13:14:56;61.79;44.38;73.09;;
64079;Laerm;51042;49.696;10.808;2023-04-22T13:17:22;60.25;43.09;74.58;;
64079;Laerm;51042;49.696;10.808;2023-04-22T13:19:47;62.36;44.21;74.01;;
64079;Laerm;51042;49.696;10.808;2023-04-22T13:22:15;60.91;43.59;77.27;;
64079;Laerm;51042;49.696;10.808;2023-04-22T13:24:40;67.06;49.39;80.96;;
64079;Laerm;51042;49.696;10.808;2023-04-22T13:27:05;62.71;47.90;79.91;;
64079;Laerm;51042;49.696;10.808;2023-04-22T13:29:32;59.67;45.29;74.08;;
64079;Laerm;51042;49.696;10.808;2023-04-22T13:31:57;62.53;43.87;78.95;;
64079;Laerm;51042;49.696;10.808;2023-04-22T13:34:23;59.22;42.93;70.41;;
64079;Laerm;51042;49.696;10.808;2023-04-22T13:36:48;62.16;42.38;75.82;;
64079;Laerm;51042;49.696;10.808;2023-04-22T13:39:14;62.30;44.70;78.36;;
64079;Laerm;51042;49.696;10.808;2023-04-22T13:41:40;63.26;45.43;76.62;;